Decoded Metar for YSRI (RICHMOND in AUSTRALIA) (IATA:RCM) | Meteo·Mobile Aviation Weather
aviador You're here:

YSRI Decoded Metar

RICHMOND in AUSTRALIA
Report Time2018-08-18 15:30:00
UTC Time2018-08-18 15:44:38
Flight Rules vfr VFR
Wind250° at 10 kt
W.Decomp.*RWY 28: 7.4 kt HW 6.7 kt LCW
W.Rank250° ranks 12
Current wind is above 250° avg. (6.3)
Visibility9999 m
Phenomena:N/A
Clouds:N/A
Expected CloudBase > 4,800 ft AGL from Temp-Dew spread
CeilingNone
Temp12°C (ISA -3)
Dew Point00°C (44% RH)
AAT6.4°C
QNH1012 hPa
Density Alt-151 ft
Elevation69 ft
Report Wrong Elevation
Raw Report
METAR YSRI 181530Z AUTO 25010KT 9999 // NCD 12/00 Q1012
RF00.0/000.0 PRESENT WEATHER SENSOR US=

Extra information for YSRI:More info

Metar Taf Metar & Taf Last 4 Metars F.Rules Stats Wind Profile Meteogram Temp Stats Airport Information Weather charts Add Link Nearby VenuesMetar ALERT Operation Metar Decoded Social comments